createdAt,value
2023-05-15T00:00:39.492Z,5.32
2023-05-15T00:03:20.983Z,5.72
2023-05-15T00:08:35.649Z,6.03
2023-05-15T00:16:01.435Z,6.75
2023-05-15T00:18:52.695Z,6.65
2023-05-15T00:21:27.795Z,7.45
2023-05-15T00:24:19.206Z,6.22
2023-05-15T00:27:35.494Z,6.93
2023-05-15T00:30:53.465Z,7.10
2023-05-15T00:33:46.018Z,7.25
2023-05-15T00:39:51.326Z,7.30
2023-05-15T00:45:46.080Z,7.45
2023-05-15T00:48:54.027Z,7.40
2023-05-15T00:51:42.573Z,7.18
2023-05-15T00:54:13.664Z,7.57
2023-05-15T00:56:54.767Z,7.47
2023-05-15T01:00:01.043Z,8.65
2023-05-15T01:03:00.171Z,7.43
2023-05-15T01:05:32.676Z,8.07
2023-05-15T01:09:23.294Z,8.57
2023-05-15T01:12:05.016Z,8.32
2023-05-15T01:14:38.560Z,8.73
2023-05-15T01:17:07.112Z,9.75
2023-05-15T01:19:38.881Z,8.88
2023-05-15T01:23:02.336Z,10.00
2023-05-15T01:25:38.289Z,8.32
2023-05-15T01:29:01.667Z,9.60
2023-05-15T01:31:35.383Z,8.55
2023-05-15T01:34:56.809Z,8.52
2023-05-15T01:48:48.306Z,8.77
2023-05-15T01:51:16.615Z,8.55
2023-05-15T01:54:49.722Z,10.23
2023-05-15T01:57:19.134Z,10.05
2023-05-15T02:01:15.618Z,9.63
2023-05-15T02:35:06.891Z,11.10
2023-05-15T02:49:09.152Z,11.90
2023-05-15T02:51:37.400Z,11.75
2023-05-15T02:54:05.406Z,10.57
2023-05-15T02:56:41.305Z,12.00
2023-05-15T02:59:11.620Z,11.07
2023-05-15T03:01:56.188Z,12.88
2023-05-15T03:04:26.640Z,12.43
2023-05-15T03:07:18.780Z,12.75
2023-05-15T03:11:17.390Z,11.73
2023-05-15T03:17:16.898Z,11.05
2023-05-15T03:21:08.432Z,12.95
2023-05-15T03:28:52.476Z,14.43
2023-05-15T03:31:47.110Z,11.88
2023-05-15T03:34:34.846Z,12.68
2023-05-15T03:37:07.842Z,13.00
2023-05-15T03:40:01.966Z,12.55
2023-05-15T03:42:48.762Z,11.65
2023-05-15T03:45:44.120Z,12.32
2023-05-15T03:48:14.336Z,13.27
2023-05-15T03:57:32.444Z,12.00
2023-05-15T04:03:03.589Z,11.77
2023-05-15T04:06:57.465Z,12.38
2023-05-15T04:09:33.049Z,13.27
2023-05-15T04:50:02.053Z,11.60
2023-05-15T04:52:36.276Z,14.65
2023-05-15T04:55:16.252Z,10.57
2023-05-15T04:57:54.906Z,12.20
2023-05-15T05:00:29.746Z,13.30
2023-05-15T05:03:00.952Z,12.32
2023-05-15T05:05:37.981Z,10.65
2023-05-15T05:11:27.149Z,10.37
2023-05-15T05:14:03.517Z,9.10
2023-05-15T05:16:47.463Z,9.70
2023-05-15T05:19:21.219Z,9.30
2023-05-15T05:21:54.706Z,8.02
2023-05-15T05:24:38.338Z,9.57
2023-05-15T05:27:11.733Z,8.98
2023-05-15T05:30:17.282Z,9.30
2023-05-15T05:32:51.991Z,11.32
2023-05-15T05:35:42.940Z,10.10
2023-05-15T05:38:53.515Z,9.23
2023-05-15T05:41:48.187Z,9.35
2023-05-15T05:44:35.312Z,10.27
2023-05-15T05:47:16.921Z,9.05
2023-05-15T05:49:48.752Z,9.35
2023-05-15T05:52:58.096Z,9.65
2023-05-15T05:55:20.721Z,9.50
2023-05-15T05:58:18.314Z,9.00
2023-05-15T06:01:05.628Z,9.10
2023-05-15T06:03:46.174Z,8.23
2023-05-15T06:06:34.212Z,8.70
2023-05-15T06:09:27.937Z,7.78
2023-05-15T06:12:03.323Z,9.25
2023-05-15T06:22:39.636Z,10.43
2023-05-15T06:25:18.909Z,10.13
2023-05-15T06:30:58.607Z,9.88
2023-05-15T06:43:04.924Z,10.07
2023-05-15T06:45:59.499Z,9.30
2023-05-15T06:49:51.549Z,8.85
2023-05-15T06:51:27.996Z,9.95
2023-05-15T06:54:49.516Z,9.50
2023-05-15T07:01:46.115Z,10.85
2023-05-15T07:14:17.184Z,9.68
2023-05-15T07:18:36.633Z,10.07
2023-05-15T07:48:39.777Z,8.80
2023-05-15T07:51:07.451Z,10.00
2023-05-15T07:57:20.811Z,10.82
2023-05-15T07:59:57.079Z,9.27
2023-05-15T08:02:27.148Z,9.70
2023-05-15T08:04:55.072Z,9.93
2023-05-15T08:07:22.576Z,9.70
2023-05-15T08:09:50.388Z,9.55
2023-05-15T08:12:34.219Z,9.02
2023-05-15T08:15:13.769Z,8.90
2023-05-15T08:18:23.970Z,9.13
2023-05-15T08:21:04.138Z,10.60
2023-05-15T08:26:24.817Z,9.02
2023-05-15T08:28:56.844Z,10.35
2023-05-15T08:31:46.485Z,9.38
2023-05-15T08:34:34.499Z,8.68
2023-05-15T08:37:05.322Z,9.80
2023-05-15T08:39:32.582Z,9.68
2023-05-15T08:42:28.278Z,10.25
2023-05-15T08:45:04.060Z,10.93
2023-05-15T08:47:35.925Z,9.55
2023-05-15T08:50:16.801Z,10.20
2023-05-15T08:52:49.836Z,10.38
2023-05-15T08:55:18.081Z,9.82
2023-05-15T08:57:52.904Z,8.27
2023-05-15T09:00:22.499Z,9.68
2023-05-15T09:02:54.283Z,10.30
2023-05-15T09:05:21.860Z,9.73
2023-05-15T09:07:52.774Z,9.73
2023-05-15T09:10:20.291Z,10.88
2023-05-15T09:12:55.090Z,10.88
2023-05-15T09:15:25.561Z,10.65
2023-05-15T09:17:55.440Z,9.05
2023-05-15T09:20:28.509Z,10.65
2023-05-15T09:23:00.084Z,10.48
2023-05-15T09:28:30.973Z,9.85
2023-05-15T09:31:02.333Z,9.00
2023-05-15T09:33:34.698Z,9.68
2023-05-15T09:36:04.773Z,10.25
2023-05-15T09:38:40.653Z,8.75
2023-05-15T09:41:12.700Z,10.52
2023-05-15T09:46:12.587Z,8.98
2023-05-15T09:48:41.480Z,8.82
2023-05-15T09:51:19.684Z,9.43
2023-05-15T09:53:54.403Z,9.35
2023-05-15T09:56:22.542Z,8.70
2023-05-15T09:58:57.178Z,9.63
2023-05-15T10:01:25.966Z,9.07
2023-05-15T10:04:07.386Z,9.82
2023-05-15T10:06:43.146Z,8.90
2023-05-15T10:09:11.468Z,10.10
2023-05-15T10:11:43.654Z,9.43
2023-05-15T10:14:13.577Z,10.07
2023-05-15T10:16:45.503Z,11.10
2023-05-15T10:19:24.759Z,10.95
2023-05-15T10:21:53.971Z,11.85
2023-05-15T10:24:31.233Z,11.05
2023-05-15T10:26:59.484Z,11.30
2023-05-15T10:29:30.589Z,11.18
2023-05-15T10:32:01.458Z,11.87
2023-05-15T10:34:35.302Z,11.87
2023-05-15T10:37:13.444Z,11.80
2023-05-15T10:39:48.517Z,13.30
2023-05-15T10:42:19.784Z,12.55
2023-05-15T10:44:56.353Z,11.20
2023-05-15T10:47:23.794Z,11.82
2023-05-15T10:49:51.114Z,12.82
2023-05-15T10:52:24.063Z,14.10
2023-05-15T10:54:53.685Z,14.38
2023-05-15T10:57:24.200Z,12.57
2023-05-15T10:59:51.711Z,12.60
2023-05-15T11:02:23.379Z,12.32
2023-05-15T11:07:35.173Z,12.68
2023-05-15T11:10:28.286Z,13.18
2023-05-15T11:13:00.387Z,12.38
2023-05-15T11:15:28.973Z,12.02
2023-05-15T11:18:15.110Z,12.93
2023-05-15T11:21:00.865Z,12.18
2023-05-15T11:23:41.566Z,12.23
2023-05-15T11:26:09.359Z,12.13
2023-05-15T11:28:43.687Z,12.98
2023-05-15T11:31:12.228Z,10.90
2023-05-15T11:33:40.715Z,13.13
2023-05-15T11:36:08.689Z,12.48
2023-05-15T11:38:42.610Z,12.32
2023-05-15T11:41:22.101Z,11.90
2023-05-15T11:43:50.531Z,11.20
2023-05-15T11:46:17.969Z,11.68
2023-05-15T11:48:48.050Z,11.20
2023-05-15T11:51:24.345Z,10.63
2023-05-15T11:53:53.477Z,10.52
2023-05-15T11:56:25.017Z,9.57
2023-05-15T11:58:57.057Z,9.88
2023-05-15T12:01:24.979Z,9.60
2023-05-15T12:03:54.199Z,9.70
2023-05-15T12:06:22.026Z,9.48
2023-05-15T12:08:53.472Z,9.05
2023-05-15T12:11:24.687Z,9.43
2023-05-15T12:13:55.695Z,8.88
2023-05-15T12:16:28.910Z,8.13
2023-05-15T12:19:04.576Z,8.80
2023-05-15T12:21:32.375Z,7.47
2023-05-15T12:24:07.655Z,7.45
2023-05-15T12:26:36.309Z,7.75
2023-05-15T12:29:04.442Z,6.30
2023-05-15T12:31:33.575Z,7.35
2023-05-15T12:34:01.028Z,7.90
2023-05-15T12:36:30.055Z,8.10
2023-05-15T12:38:58.174Z,7.63
2023-05-15T12:41:31.308Z,8.20
2023-05-15T12:43:58.604Z,7.22
2023-05-15T12:46:29.564Z,6.97
2023-05-15T12:48:59.699Z,6.60
2023-05-15T12:51:27.542Z,6.35
2023-05-15T12:53:54.945Z,7.00
2023-05-15T12:56:22.383Z,5.20
2023-05-15T12:58:50.007Z,5.75
2023-05-15T13:01:17.746Z,5.15
2023-05-15T13:03:45.645Z,4.53
2023-05-15T13:06:13.036Z,4.63
2023-05-15T13:08:41.977Z,3.83
2023-05-15T13:11:13.978Z,2.47
2023-05-15T13:13:48.756Z,2.60
2023-05-15T13:16:29.814Z,2.50
2023-05-15T13:19:00.222Z,2.20
2023-05-15T13:21:29.867Z,2.83
2023-05-15T13:23:57.479Z,2.13
2023-05-15T13:26:24.739Z,2.10
2023-05-15T13:28:52.503Z,2.20
2023-05-15T13:31:22.687Z,2.30
2023-05-15T13:33:49.774Z,2.13
2023-05-15T13:36:17.048Z,1.70
2023-05-15T13:38:44.333Z,2.17
2023-05-15T13:41:11.650Z,2.30
2023-05-15T13:43:39.257Z,2.10
2023-05-15T13:46:06.479Z,2.00
2023-05-15T13:48:33.866Z,2.00
2023-05-15T13:51:01.032Z,1.75
2023-05-15T13:53:28.014Z,2.17
2023-05-15T13:55:56.198Z,2.53
2023-05-15T13:58:26.710Z,2.08
2023-05-15T14:00:53.990Z,2.30
2023-05-15T14:03:21.473Z,2.67
2023-05-15T14:05:50.315Z,1.90
2023-05-15T14:08:17.513Z,1.70
2023-05-15T14:10:44.535Z,2.30
2023-05-15T14:13:11.664Z,2.05
2023-05-15T14:15:38.744Z,1.35
2023-05-15T14:18:05.813Z,1.60
2023-05-15T14:20:35.513Z,1.60
2023-05-15T14:23:02.662Z,1.52
2023-05-15T14:25:29.707Z,1.40
2023-05-15T14:27:56.836Z,1.42
2023-05-15T14:30:24.335Z,1.77
2023-05-15T14:32:51.709Z,1.48
2023-05-15T14:35:18.868Z,2.00
2023-05-15T14:37:53.723Z,1.73
2023-05-15T14:43:09.016Z,1.75
2023-05-15T14:45:36.069Z,2.03
2023-05-15T14:48:03.229Z,1.48
2023-05-15T14:50:30.422Z,1.23
2023-05-15T14:52:57.403Z,1.40
2023-05-15T14:55:24.647Z,1.20
2023-05-15T14:57:51.800Z,1.40
2023-05-15T15:00:20.785Z,1.38
2023-05-15T15:02:48.181Z,1.10
2023-05-15T15:05:16.050Z,3.63
2023-05-15T15:08:06.655Z,1.50
2023-05-15T15:10:38.024Z,1.00
2023-05-15T15:13:10.166Z,1.38
2023-05-15T15:15:59.372Z,1.17
2023-05-15T15:19:00.556Z,1.15
2023-05-15T15:21:33.950Z,0.98
2023-05-15T15:24:09.550Z,1.17
2023-05-15T15:26:44.174Z,1.30
2023-05-15T15:29:11.578Z,1.27
2023-05-15T15:31:38.907Z,1.33
2023-05-15T15:34:08.489Z,1.27
2023-05-15T15:36:44.566Z,1.40
2023-05-15T15:39:13.183Z,1.02
2023-05-15T15:41:42.978Z,1.15
2023-05-15T15:44:10.279Z,1.48
2023-05-15T15:46:37.319Z,1.48
2023-05-15T15:49:06.484Z,1.30
2023-05-15T15:51:34.029Z,1.40
2023-05-15T15:54:10.155Z,1.20
2023-05-15T16:00:16.080Z,1.83
2023-05-15T16:02:43.470Z,1.10
2023-05-15T16:05:10.898Z,1.60
2023-05-15T16:07:38.046Z,1.40
2023-05-15T16:10:12.504Z,1.25
2023-05-15T16:12:58.193Z,1.58
2023-05-15T16:15:43.973Z,1.35
2023-05-15T16:18:21.159Z,1.00
2023-05-15T16:21:15.698Z,0.90
2023-05-15T16:23:43.190Z,1.00
2023-05-15T16:26:16.259Z,1.00
2023-05-15T16:28:48.848Z,0.93
2023-05-15T16:31:16.297Z,1.45
2023-05-15T16:33:43.410Z,1.20
2023-05-15T16:36:10.391Z,1.25
2023-05-15T16:38:37.421Z,1.00
2023-05-15T16:41:04.645Z,1.40
2023-05-15T16:43:31.860Z,0.88
2023-05-15T16:45:59.072Z,0.98
2023-05-15T16:48:27.708Z,1.40
2023-05-15T16:50:55.055Z,1.40
2023-05-15T16:53:22.640Z,1.08
2023-05-15T16:55:50.769Z,1.65
2023-05-15T16:58:18.005Z,1.23
2023-05-15T17:00:45.203Z,1.55
2023-05-15T17:03:13.076Z,0.90
2023-05-15T17:05:40.588Z,1.10
2023-05-15T17:08:07.741Z,1.00
2023-05-15T17:10:36.152Z,0.88
2023-05-15T17:13:03.123Z,1.58
2023-05-15T17:15:30.368Z,0.77
2023-05-15T17:17:58.802Z,0.70
2023-05-15T17:20:27.382Z,1.08
2023-05-15T17:22:54.426Z,0.95
2023-05-15T17:26:59.736Z,1.85
2023-05-15T17:29:56.757Z,0.80
2023-05-15T17:32:52.770Z,0.80
2023-05-15T17:39:01.344Z,1.10
2023-05-15T17:41:32.816Z,1.20
2023-05-15T17:44:17.813Z,0.93
2023-05-15T17:47:09.112Z,1.40
2023-05-15T17:49:42.252Z,1.80
2023-05-15T17:52:27.087Z,1.50
2023-05-15T17:54:56.908Z,1.88
2023-05-15T17:57:28.675Z,1.45
2023-05-15T17:59:56.463Z,1.20
2023-05-15T18:02:24.002Z,1.40
2023-05-15T18:04:52.094Z,1.27
2023-05-15T18:07:19.749Z,2.08
2023-05-15T18:09:51.203Z,2.15
2023-05-15T18:12:20.958Z,1.58
2023-05-15T18:14:50.357Z,1.67
2023-05-15T18:17:18.401Z,1.85
2023-05-15T18:19:46.268Z,1.50
2023-05-15T18:22:26.858Z,1.77
2023-05-15T18:24:55.339Z,1.65
2023-05-15T18:27:24.409Z,1.60
2023-05-15T18:29:53.133Z,2.08
2023-05-15T18:32:26.843Z,1.60
2023-05-15T18:53:50.564Z,1.02
2023-05-15T18:56:26.420Z,1.60
2023-05-15T18:59:03.342Z,1.45
2023-05-15T19:01:37.702Z,1.50
2023-05-15T19:04:28.755Z,1.45
2023-05-15T19:11:34.464Z,2.42
2023-05-15T19:16:51.466Z,1.42
2023-05-15T19:19:25.894Z,3.60
2023-05-15T19:23:14.022Z,1.83
2023-05-15T19:25:22.015Z,2.25
2023-05-15T19:27:58.185Z,1.65
2023-05-15T19:31:27.820Z,1.88
2023-05-15T19:34:01.071Z,1.55
2023-05-15T19:37:00.651Z,1.30
2023-05-15T19:39:28.318Z,1.45
2023-05-15T19:46:12.016Z,1.95
2023-05-15T19:50:14.877Z,1.50
2023-05-15T19:56:59.212Z,1.50
2023-05-15T20:03:01.156Z,1.20
2023-05-15T20:06:17.800Z,1.30
2023-05-15T20:08:50.298Z,1.50
2023-05-15T20:11:21.452Z,1.77
2023-05-15T20:15:23.833Z,1.63
2023-05-15T20:18:32.911Z,3.67
2023-05-15T20:21:29.727Z,1.40
2023-05-15T20:25:26.782Z,1.20
2023-05-15T20:29:07.003Z,2.75
2023-05-15T20:35:00.870Z,1.88
2023-05-15T20:41:11.647Z,1.65
2023-05-15T21:06:31.987Z,2.25
2023-05-15T21:09:04.960Z,1.98
2023-05-15T21:11:32.637Z,1.23
2023-05-15T21:14:02.459Z,1.30
2023-05-15T21:16:30.128Z,1.90
2023-05-15T21:18:58.705Z,1.80
2023-05-15T21:21:26.059Z,1.58
2023-05-15T21:23:53.356Z,1.90
2023-05-15T21:26:23.286Z,1.88
2023-05-15T21:28:50.422Z,1.63
2023-05-15T21:31:17.750Z,2.25
2023-05-15T21:33:45.020Z,1.48
2023-05-15T21:36:12.691Z,1.80
2023-05-15T21:38:40.171Z,2.13
2023-05-15T21:41:07.296Z,1.15
2023-05-15T21:43:34.742Z,1.63
2023-05-15T21:46:02.075Z,1.48
2023-05-15T21:48:31.308Z,4.40
2023-05-15T21:50:58.666Z,2.58
2023-05-15T21:53:26.120Z,1.35
2023-05-15T21:55:59.617Z,1.65
2023-05-15T21:58:27.181Z,2.10
2023-05-15T22:00:54.532Z,1.63
2023-05-15T22:03:22.081Z,2.42
2023-05-15T22:05:50.409Z,1.90
2023-05-15T22:08:17.485Z,2.75
2023-05-15T22:10:45.108Z,3.17
2023-05-15T22:13:13.978Z,1.80
2023-05-15T22:15:41.172Z,1.75
2023-05-15T22:18:08.326Z,1.63
2023-05-15T22:20:36.268Z,1.88
2023-05-15T22:23:03.625Z,1.45
2023-05-15T22:25:31.530Z,1.52
2023-05-15T22:27:58.807Z,2.10
2023-05-15T22:30:26.119Z,1.50
2023-05-15T22:32:53.402Z,1.70
2023-05-15T22:35:20.726Z,1.75
2023-05-15T22:37:49.070Z,2.00
2023-05-15T22:40:16.313Z,1.90
2023-05-15T22:42:43.566Z,2.72
2023-05-15T22:45:14.237Z,3.17
2023-05-15T22:47:41.345Z,1.50
2023-05-15T22:50:09.018Z,1.70
2023-05-15T22:52:36.001Z,1.80
2023-05-15T22:55:03.222Z,2.15
2023-05-15T22:57:30.351Z,1.40
2023-05-15T22:59:57.342Z,1.77
2023-05-15T23:02:25.900Z,1.80
2023-05-15T23:04:53.128Z,1.40
2023-05-15T23:07:20.593Z,1.75
2023-05-15T23:09:47.904Z,1.90
2023-05-15T23:12:15.054Z,1.63
2023-05-15T23:14:42.244Z,1.60
2023-05-15T23:17:09.469Z,2.42
2023-05-15T23:19:36.595Z,1.83
2023-05-15T23:22:03.878Z,1.58
2023-05-15T23:24:31.182Z,1.50
2023-05-15T23:26:58.347Z,1.17
2023-05-15T23:29:25.623Z,1.27
2023-05-15T23:31:55.379Z,1.67
2023-05-15T23:34:22.695Z,2.78
2023-05-15T23:36:49.869Z,1.38
2023-05-15T23:39:16.976Z,2.20
2023-05-15T23:41:44.161Z,1.40
2023-05-15T23:44:11.221Z,1.45
2023-05-15T23:46:39.717Z,1.30
2023-05-15T23:49:07.279Z,1.48
2023-05-15T23:51:34.448Z,1.67
2023-05-15T23:54:01.690Z,1.40
2023-05-15T23:56:30.225Z,1.40
2023-05-15T23:58:57.354Z,1.60
